Time;durP1;ratioP1;P1;durP2;ratioP2;P2;SDS_P1;SDS_P2;PMS_P1;PMS_P2;Temp;Humidity;BMP_temperature;BMP_pressure;BME280_temperature;BME280_humidity;BME280_pressure;Samples;Min_cycle;Max_cycle;Signal;HPM_P1;HPM_P2
2023/04/18 00:00:19;;;;;;;13.50;11.18;;;8.40;99.90;;;;;;5071959;28;20511;-58
2023/04/18 00:02:45;;;;;;;15.10;11.93;;;8.30;99.90;;;;;;5072317;28;20032;-59
2023/04/18 00:05:11;;;;;;;15.18;11.40;;;8.30;99.90;;;;;;5072282;28;20016;-58
2023/04/18 00:07:38;;;;;;;13.07;11.65;;;8.40;99.90;;;;;;5072369;28;20468;-59
2023/04/18 00:10:05;;;;;;;13.70;12.23;;;8.40;99.90;;;;;;5072269;28;20395;-59
2023/04/18 00:12:33;;;;;;;12.77;10.82;;;8.30;99.90;;;;;;5072090;28;20525;-57
2023/04/18 00:14:59;;;;;;;15.68;12.05;;;8.30;99.90;;;;;;5072373;28;20078;-57
2023/04/18 00:17:26;;;;;;;13.60;12.20;;;8.30;99.90;;;;;;5072004;28;20038;-59
2023/04/18 00:19:53;;;;;;;15.05;12.80;;;8.20;99.90;;;;;;5072146;28;20025;-58
2023/04/18 00:22:22;;;;;;;13.48;11.68;;;8.20;99.90;;;;;;5070492;28;20025;-59
2023/04/18 00:24:48;;;;;;;13.25;11.82;;;8.20;99.90;;;;;;5071959;28;20365;-56
2023/04/18 00:27:15;;;;;;;13.45;12.05;;;8.20;99.90;;;;;;5071701;28;20047;-59
2023/04/18 00:29:41;;;;;;;15.10;12.60;;;8.20;99.90;;;;;;5071719;28;20055;-58
2023/04/18 00:32:07;;;;;;;14.95;12.27;;;8.20;99.90;;;;;;5071608;28;20036;-58
2023/04/18 00:34:32;;;;;;;13.75;12.27;;;8.20;99.90;;;;;;5072049;28;20028;-60
2023/04/18 00:36:58;;;;;;;21.80;15.30;;;8.20;99.90;;;;;;5071730;28;20028;-55
2023/04/18 00:39:24;;;;;;;13.05;11.80;;;8.20;99.90;;;;;;5071427;28;20375;-59
2023/04/18 00:41:50;;;;;;;14.05;11.38;;;8.20;99.90;;;;;;5070699;28;20033;-58
2023/04/18 00:44:15;;;;;;;14.18;12.45;;;8.20;99.90;;;;;;5070089;28;20024;-59
2023/04/18 00:46:41;;;;;;;14.88;13.35;;;8.20;99.90;;;;;;5071429;28;20097;-58
2023/04/18 00:49:07;;;;;;;14.38;12.02;;;8.20;99.90;;;;;;5071612;28;20066;-58
2023/04/18 00:51:33;;;;;;;20.67;13.43;;;8.20;99.90;;;;;;5071553;28;20108;-59
2023/04/18 00:54:00;;;;;;;14.43;12.32;;;8.20;99.90;;;;;;5071190;28;20033;-59
2023/04/18 00:56:26;;;;;;;15.25;13.65;;;8.20;99.90;;;;;;5070912;28;20475;-59
2023/04/18 00:58:52;;;;;;;15.05;13.05;;;8.10;99.90;;;;;;5071194;28;20045;-59
2023/04/18 01:01:18;;;;;;;15.25;13.68;;;8.20;99.90;;;;;;5069833;28;20021;-59
2023/04/18 01:03:43;;;;;;;13.27;11.07;;;8.20;99.90;;;;;;5070730;28;20528;-58
2023/04/18 01:06:09;;;;;;;13.02;11.75;;;8.20;99.90;;;;;;5070614;28;20017;-58
2023/04/18 01:08:35;;;;;;;14.10;12.63;;;8.20;99.90;;;;;;5071098;28;20035;-59
2023/04/18 01:11:01;;;;;;;19.77;13.57;;;8.20;99.90;;;;;;5071007;28;20391;-59
2023/04/18 01:13:27;;;;;;;16.55;11.90;;;8.20;99.90;;;;;;5071036;28;20024;-59
2023/04/18 01:15:54;;;;;;;13.98;12.52;;;8.20;99.90;;;;;;5070880;28;20432;-59
2023/04/18 01:18:21;;;;;;;14.30;12.80;;;8.10;99.90;;;;;;5070937;28;20060;-56
2023/04/18 01:20:50;;;;;;;13.85;12.35;;;8.20;99.90;;;;;;5070817;28;20029;-58
2023/04/18 01:23:17;;;;;;;12.40;11.13;;;8.10;99.90;;;;;;5070673;28;20501;-59
2023/04/18 01:25:44;;;;;;;12.63;10.55;;;8.20;99.90;;;;;;5070634;28;20024;-59
2023/04/18 01:28:11;;;;;;;15.90;12.48;;;8.30;99.90;;;;;;5070681;28;20020;-59
2023/04/18 01:30:37;;;;;;;11.65;10.55;;;8.30;99.90;;;;;;5070709;28;20027;-57
2023/04/18 01:33:03;;;;;;;14.63;11.57;;;8.40;99.90;;;;;;5070615;28;20036;-58
2023/04/18 01:35:30;;;;;;;15.55;11.57;;;8.40;99.90;;;;;;5071338;28;20063;-59
2023/04/18 01:37:56;;;;;;;13.35;11.07;;;8.30;99.90;;;;;;5071146;28;20047;-58
2023/04/18 01:40:23;;;;;;;14.38;10.82;;;8.30;99.90;;;;;;5070320;28;20082;-58
2023/04/18 01:42:49;;;;;;;15.77;12.15;;;8.30;99.90;;;;;;5070461;28;20537;-58
2023/04/18 01:45:16;;;;;;;14.05;11.80;;;8.30;99.90;;;;;;5070380;28;20132;-58
2023/04/18 01:47:42;;;;;;;13.73;12.30;;;8.20;99.90;;;;;;5070704;28;20388;-56
2023/04/18 01:50:08;;;;;;;14.60;13.10;;;8.20;99.90;;;;;;5070394;28;20111;-57
2023/04/18 01:52:34;;;;;;;12.75;11.43;;;8.20;99.90;;;;;;5070315;28;20387;-59
2023/04/18 01:55:03;;;;;;;15.00;12.70;;;8.20;99.90;;;;;;5070377;28;20044;-59
2023/04/18 01:57:29;;;;;;;15.20;12.85;;;8.10;99.90;;;;;;5070431;28;20033;-58
2023/04/18 01:59:55;;;;;;;14.48;12.52;;;8.10;99.90;;;;;;5070274;28;20032;-58
2023/04/18 02:02:21;;;;;;;16.83;13.32;;;8.10;99.90;;;;;;5070512;28;20021;-58
2023/04/18 02:04:46;;;;;;;14.15;12.70;;;8.10;99.90;;;;;;5070199;28;20527;-59
2023/04/18 02:07:12;;;;;;;15.35;13.75;;;8.10;99.90;;;;;;5070015;28;20348;-58
2023/04/18 02:09:38;;;;;;;18.30;13.65;;;8.00;99.90;;;;;;5070359;28;20032;-58
2023/04/18 02:12:03;;;;;;;13.75;12.35;;;8.00;99.90;;;;;;5070268;28;20021;-59
2023/04/18 02:14:31;;;;;;;14.55;12.93;;;8.00;99.90;;;;;;5070136;28;20028;-59
2023/04/18 02:16:57;;;;;;;15.32;12.90;;;8.00;99.90;;;;;;5073541;28;20028;-58
2023/04/18 02:19:23;;;;;;;17.08;14.40;;;8.00;99.90;;;;;;5074254;28;20420;-59
2023/04/18 02:21:49;;;;;;;14.25;12.82;;;8.00;99.90;;;;;;5074153;28;20017;-59
2023/04/18 02:24:15;;;;;;;15.57;13.57;;;8.00;99.90;;;;;;5074019;28;20021;-59
2023/04/18 02:26:42;;;;;;;15.85;13.38;;;8.00;99.90;;;;;;5073983;28;20039;-57
2023/04/18 02:29:07;;;;;;;14.40;12.73;;;8.00;99.90;;;;;;5074159;28;20112;-58
2023/04/18 02:31:33;;;;;;;19.35;14.65;;;8.00;99.90;;;;;;5074052;28;20166;-57
2023/04/18 02:33:59;;;;;;;19.65;13.65;;;8.00;99.90;;;;;;5074099;28;20468;-59
2023/04/18 02:36:26;;;;;;;21.25;13.15;;;7.90;99.90;;;;;;5073723;28;20585;-59
2023/04/18 02:38:53;;;;;;;16.95;13.05;;;8.00;99.90;;;;;;5074055;28;20456;-59
2023/04/18 02:41:19;;;;;;;15.85;14.25;;;8.00;99.90;;;;;;5073782;28;20425;-59
2023/04/18 02:43:45;;;;;;;18.08;14.13;;;8.00;99.90;;;;;;5073830;28;20017;-58
2023/04/18 02:46:11;;;;;;;15.43;13.18;;;8.00;99.90;;;;;;5073595;28;20056;-59
2023/04/18 02:48:36;;;;;;;20.02;13.05;;;8.00;99.90;;;;;;5073844;28;20387;-57
2023/04/18 02:51:06;;;;;;;18.90;14.30;;;8.00;99.90;;;;;;5073661;28;20028;-58
2023/04/18 02:53:32;;;;;;;15.70;14.10;;;8.00;99.90;;;;;;5073815;28;20028;-59
2023/04/18 02:55:58;;;;;;;15.30;13.63;;;8.00;99.90;;;;;;5073637;28;20040;-56
2023/04/18 02:58:24;;;;;;;14.25;12.55;;;8.00;99.90;;;;;;5073614;28;20092;-58
2023/04/18 03:00:52;;;;;;;17.73;12.80;;;8.00;99.90;;;;;;5073825;28;20109;-56
2023/04/18 03:03:18;;;;;;;16.83;13.43;;;8.00;99.90;;;;;;5074002;28;20055;-59
2023/04/18 03:05:44;;;;;;;14.75;12.70;;;8.00;99.90;;;;;;5073424;28;20059;-58
2023/04/18 03:08:09;;;;;;;14.88;13.38;;;8.00;99.90;;;;;;5073704;28;20013;-59
2023/04/18 03:10:35;;;;;;;14.73;13.15;;;8.00;99.90;;;;;;5073294;28;20025;-58
2023/04/18 03:13:01;;;;;;;14.57;13.07;;;8.00;99.90;;;;;;5073306;28;20384;-58
2023/04/18 03:15:27;;;;;;;15.88;12.60;;;8.00;99.90;;;;;;5073002;28;20056;-58
2023/04/18 03:17:52;;;;;;;15.70;13.60;;;8.00;99.90;;;;;;5073349;28;20023;-58
2023/04/18 03:20:18;;;;;;;16.35;12.95;;;8.00;99.90;;;;;;5072883;28;20020;-59
2023/04/18 03:22:44;;;;;;;17.55;12.15;;;8.00;99.90;;;;;;5073061;28;20052;-58
2023/04/18 03:25:10;;;;;;;14.93;12.77;;;8.00;99.90;;;;;;5071595;28;20025;-56
2023/04/18 03:27:35;;;;;;;15.55;13.80;;;8.00;99.90;;;;;;5072260;28;20027;-57
2023/04/18 03:30:01;;;;;;;16.02;14.10;;;8.00;99.90;;;;;;5072943;28;20024;-58
2023/04/18 03:32:27;;;;;;;25.75;17.80;;;8.00;99.90;;;;;;5072835;28;20024;-58
2023/04/18 03:34:53;;;;;;;24.65;18.67;;;8.00;99.90;;;;;;5072927;28;20487;-58
2023/04/18 03:37:18;;;;;;;34.15;26.02;;;8.00;99.90;;;;;;5072715;28;20391;-59
2023/04/18 03:39:44;;;;;;;41.90;28.13;;;7.90;99.90;;;;;;5071411;28;20033;-58
2023/04/18 03:42:10;;;;;;;38.15;28.17;;;8.00;99.90;;;;;;5072624;28;20103;-57
2023/04/18 03:44:35;;;;;;;41.65;28.90;;;8.00;99.90;;;;;;5071552;28;20028;-57
2023/04/18 03:47:01;;;;;;;35.55;26.45;;;8.00;99.90;;;;;;5072705;28;20051;-55
2023/04/18 03:49:27;;;;;;;38.95;27.02;;;8.00;99.90;;;;;;5072405;28;20439;-59
2023/04/18 03:51:52;;;;;;;39.30;27.98;;;8.00;99.90;;;;;;5072539;28;20032;-58
2023/04/18 03:54:18;;;;;;;34.97;25.90;;;8.10;99.90;;;;;;5072412;28;20028;-58
2023/04/18 03:56:44;;;;;;;35.95;25.50;;;8.10;99.90;;;;;;5071276;28;20029;-58
2023/04/18 03:59:10;;;;;;;36.28;27.30;;;8.10;99.10;;;;;;5072115;28;20049;-56
2023/04/18 04:01:36;;;;;;;45.05;27.63;;;8.10;98.40;;;;;;5072365;28;20491;-58
2023/04/18 04:04:03;;;;;;;35.50;25.27;;;8.20;98.80;;;;;;5071082;28;20495;-58
2023/04/18 04:06:30;;;;;;;40.72;27.60;;;8.20;98.70;;;;;;5072260;28;20391;-59
2023/04/18 04:08:56;;;;;;;35.97;24.92;;;8.20;97.70;;;;;;5071059;28;20086;-58
2023/04/18 04:11:22;;;;;;;40.13;26.92;;;8.20;97.90;;;;;;5071995;28;20095;-55
2023/04/18 04:13:48;;;;;;;38.35;26.23;;;8.20;98.20;;;;;;5072157;28;20399;-59
2023/04/18 04:16:13;;;;;;;37.22;26.98;;;8.20;98.30;;;;;;5072374;28;20020;-56
2023/04/18 04:18:39;;;;;;;37.85;27.35;;;8.20;98.60;;;;;;5072968;28;20029;-64
2023/04/18 04:21:05;;;;;;;37.80;25.02;;;8.20;98.40;;;;;;5071812;28;20104;-58
2023/04/18 04:23:32;;;;;;;34.30;24.17;;;8.20;98.40;;;;;;5071107;28;20041;-59
2023/04/18 04:26:01;;;;;;;33.20;24.05;;;8.20;98.60;;;;;;5072003;28;20028;-59
2023/04/18 04:28:27;;;;;;;38.13;25.98;;;8.20;98.60;;;;;;5071834;28;20052;-58
2023/04/18 04:30:54;;;;;;;37.13;25.67;;;8.20;98.40;;;;;;5071787;28;20056;-57
2023/04/18 04:33:23;;;;;;;37.35;25.63;;;8.20;98.50;;;;;;5071540;28;20027;-58
2023/04/18 04:35:51;;;;;;;32.60;24.27;;;8.20;98.50;;;;;;5071893;28;20458;-57
2023/04/18 04:38:21;;;;;;;33.63;25.52;;;8.20;98.10;;;;;;5071358;28;20052;-59
2023/04/18 04:40:48;;;;;;;38.38;26.45;;;8.20;98.30;;;;;;5070818;28;20104;-58
2023/04/18 04:43:15;;;;;;;39.22;25.63;;;8.20;98.20;;;;;;5071374;28;20021;-56
2023/04/18 04:45:41;;;;;;;38.88;25.83;;;8.20;98.00;;;;;;5071268;28;20021;-59
2023/04/18 04:48:08;;;;;;;39.22;23.73;;;8.20;98.10;;;;;;5071477;28;20023;-58
2023/04/18 04:50:39;;;;;;;35.97;24.35;;;8.20;98.10;;;;;;5071573;28;20020;-56
2023/04/18 04:53:05;;;;;;;39.60;27.73;;;8.30;98.20;;;;;;5071129;28;20029;-59
2023/04/18 04:55:31;;;;;;;49.75;32.75;;;8.20;97.80;;;;;;5071299;28;20033;-58
2023/04/18 04:57:57;;;;;;;38.63;26.42;;;8.30;97.50;;;;;;5071225;28;20079;-59
2023/04/18 05:00:23;;;;;;;40.08;27.00;;;8.20;96.90;;;;;;5070765;28;20074;-58
2023/04/18 05:02:52;;;;;;;37.92;26.77;;;8.20;97.10;;;;;;5071373;28;20025;-57
2023/04/18 05:05:18;;;;;;;35.92;25.83;;;8.20;96.90;;;;;;5071090;28;20074;-59
2023/04/18 05:07:43;;;;;;;43.60;27.25;;;8.30;96.60;;;;;;5071107;28;20051;-58
2023/04/18 05:10:09;;;;;;;35.40;25.63;;;8.30;96.60;;;;;;5070824;28;20037;-59
2023/04/18 05:12:35;;;;;;;44.08;27.48;;;8.30;96.20;;;;;;5070997;28;20020;-59
2023/04/18 05:15:01;;;;;;;37.10;24.90;;;8.30;96.70;;;;;;5070938;28;20051;-58
2023/04/18 05:17:26;;;;;;;35.47;27.00;;;8.30;96.40;;;;;;5070525;28;20031;-59
2023/04/18 05:19:52;;;;;;;34.45;25.00;;;8.30;96.80;;;;;;5070750;28;20028;-58
2023/04/18 05:22:18;;;;;;;33.90;24.40;;;8.40;96.20;;;;;;5071056;28;20520;-59
2023/04/18 05:24:43;;;;;;;36.88;25.63;;;8.40;96.20;;;;;;5070936;28;20106;-59
2023/04/18 05:27:09;;;;;;;36.88;24.88;;;8.40;95.50;;;;;;5070681;28;20020;-56
2023/04/18 05:29:35;;;;;;;36.53;25.75;;;8.40;95.70;;;;;;5070557;28;20107;-58
2023/04/18 05:32:00;;;;;;;43.08;30.40;;;8.40;95.50;;;;;;5069315;28;20036;-59
2023/04/18 05:34:26;;;;;;;38.47;26.23;;;8.40;95.90;;;;;;5070430;28;20101;-57
2023/04/18 05:36:52;;;;;;;38.22;26.23;;;8.40;95.90;;;;;;5070813;28;20413;-59
2023/04/18 05:39:17;;;;;;;35.28;24.17;;;8.50;95.80;;;;;;5070315;28;20024;-58
2023/04/18 05:41:43;;;;;;;34.58;23.60;;;8.40;96.10;;;;;;5070497;28;20028;-59
2023/04/18 05:44:09;;;;;;;33.75;23.10;;;8.50;96.60;;;;;;5070131;28;20052;-56
2023/04/18 05:46:34;;;;;;;37.53;24.30;;;8.60;96.60;;;;;;5070750;28;20013;-58
2023/04/18 05:49:01;;;;;;;34.88;22.50;;;8.60;95.80;;;;;;5070487;28;20476;-59
2023/04/18 05:51:27;;;;;;;33.25;23.42;;;8.60;95.50;;;;;;5070007;28;20107;-59
2023/04/18 05:53:53;;;;;;;32.53;22.52;;;8.60;94.70;;;;;;5070397;28;20416;-58
2023/04/18 05:56:18;;;;;;;30.70;21.58;;;8.60;93.70;;;;;;5070567;28;20021;-59
2023/04/18 05:58:45;;;;;;;33.92;23.45;;;8.60;93.30;;;;;;5070004;28;20036;-59
2023/04/18 06:01:17;;;;;;;30.13;22.27;;;8.60;93.50;;;;;;5070270;28;20458;-58
2023/04/18 06:03:43;;;;;;;30.15;20.90;;;8.60;93.20;;;;;;5070381;28;20033;-54
2023/04/18 06:06:09;;;;;;;28.63;22.02;;;8.60;93.60;;;;;;5069010;28;20024;-56
2023/04/18 06:08:34;;;;;;;31.73;22.05;;;8.60;93.50;;;;;;5070375;28;20471;-56
2023/04/18 06:11:00;;;;;;;28.90;19.95;;;8.60;93.70;;;;;;5070237;28;20033;-58
2023/04/18 06:13:26;;;;;;;27.35;19.65;;;8.60;94.00;;;;;;5068723;28;20029;-59
2023/04/18 06:15:51;;;;;;;35.80;24.92;;;8.60;93.40;;;;;;5068972;28;20239;-54
2023/04/18 06:18:17;;;;;;;29.00;21.48;;;8.60;93.30;;;;;;5070071;28;20025;-59
2023/04/18 06:20:44;;;;;;;27.88;19.58;;;8.60;93.20;;;;;;5070262;28;20032;-57
2023/04/18 06:23:15;;;;;;;33.35;21.00;;;8.60;94.10;;;;;;5070151;28;20021;-56
2023/04/18 06:25:41;;;;;;;31.27;21.52;;;8.70;94.20;;;;;;5070361;28;20099;-58
2023/04/18 06:28:07;;;;;;;34.20;23.25;;;8.70;94.60;;;;;;5069858;28;20460;-59
2023/04/18 06:30:33;;;;;;;33.72;22.63;;;8.70;94.60;;;;;;5070144;28;20056;-59
2023/04/18 06:32:59;;;;;;;35.33;22.85;;;8.70;94.30;;;;;;5070185;28;20016;-58
2023/04/18 06:35:34;;;;;;;35.58;22.33;;;8.70;94.70;;;;;;5069929;28;20029;-58
2023/04/18 06:38:00;;;;;;;29.10;20.58;;;8.80;94.90;;;;;;5070049;28;20013;-58
2023/04/18 06:40:26;;;;;;;30.08;20.02;;;8.70;93.80;;;;;;5069973;28;20418;-56
2023/04/18 06:42:51;;;;;;;37.53;25.73;;;8.70;93.00;;;;;;5070296;28;20048;-56
2023/04/18 06:45:17;;;;;;;35.40;23.73;;;8.80;93.90;;;;;;5070097;28;20028;-57
2023/04/18 06:47:43;;;;;;;38.03;26.48;;;8.80;93.60;;;;;;5069878;28;20111;-57
2023/04/18 06:50:09;;;;;;;29.42;22.35;;;8.80;93.40;;;;;;5069696;28;20056;-58
2023/04/18 06:52:39;;;;;;;28.25;20.67;;;8.80;92.60;;;;;;5070149;28;20047;-56
2023/04/18 06:55:06;;;;;;;30.08;21.08;;;8.90;92.10;;;;;;5069727;28;20032;-58
2023/04/18 06:57:32;;;;;;;26.45;19.80;;;9.00;91.20;;;;;;5069674;28;20033;-57
2023/04/18 06:59:57;;;;;;;27.85;20.25;;;9.00;91.90;;;;;;5069631;28;20059;-58
2023/04/18 07:02:23;;;;;;;32.65;20.27;;;9.10;90.00;;;;;;5070364;28;20782;-58
2023/04/18 07:04:49;;;;;;;26.55;18.77;;;9.10;90.00;;;;;;5072188;28;20379;-58
2023/04/18 07:07:15;;;;;;;26.70;18.77;;;9.20;88.30;;;;;;5073138;28;20020;-56
2023/04/18 07:09:40;;;;;;;27.15;19.17;;;9.20;86.40;;;;;;5073397;28;20039;-56
2023/04/18 07:12:06;;;;;;;28.50;19.42;;;9.20;85.70;;;;;;5073167;28;20021;-58
2023/04/18 07:14:32;;;;;;;25.55;18.67;;;9.20;85.40;;;;;;5073340;28;20030;-58
2023/04/18 07:16:57;;;;;;;23.83;16.35;;;9.30;86.80;;;;;;5073370;28;20024;-58
2023/04/18 07:19:23;;;;;;;22.63;16.70;;;9.30;79.80;;;;;;5072741;28;20476;-57
2023/04/18 07:21:49;;;;;;;23.27;16.15;;;9.30;78.60;;;;;;5073019;28;20025;-58
2023/04/18 07:24:14;;;;;;;22.17;15.95;;;9.30;80.30;;;;;;5072923;28;20383;-58
2023/04/18 07:26:40;;;;;;;21.65;15.38;;;9.40;80.50;;;;;;5073237;28;20380;-57
2023/04/18 07:29:06;;;;;;;24.67;16.83;;;9.50;74.70;;;;;;5071562;28;20506;-54
2023/04/18 07:31:31;;;;;;;19.15;15.02;;;9.40;71.50;;;;;;5088576;28;20021;-59
2023/04/18 07:33:57;;;;;;;18.65;14.52;;;9.50;74.20;;;;;;5072963;28;20124;-56
2023/04/18 07:36:39;;;;;;;21.27;14.18;;;9.60;65.90;;;;;;5073194;28;20028;-58
2023/04/18 07:39:05;;;;;;;23.88;17.40;;;9.60;70.20;;;;;;5072764;28;20357;-58
2023/04/18 07:41:31;;;;;;;22.27;15.68;;;9.60;73.60;;;;;;5072958;28;20017;-58
2023/04/18 07:43:57;;;;;;;17.55;13.75;;;9.50;69.10;;;;;;5071562;28;20445;-58
2023/04/18 07:46:23;;;;;;;22.30;15.57;;;9.60;70.70;;;;;;5072595;28;20051;-58
2023/04/18 07:48:49;;;;;;;21.63;15.43;;;9.50;69.60;;;;;;5072654;28;20475;-58
2023/04/18 07:51:15;;;;;;;92.20;20.08;;;9.50;70.60;;;;;;5072589;28;20107;-58
2023/04/18 07:53:42;;;;;;;22.40;16.27;;;9.50;69.10;;;;;;5072667;28;20411;-58
2023/04/18 07:56:08;;;;;;;40.53;34.17;;;9.50;75.10;;;;;;5072286;28;20025;-57
2023/04/18 07:58:34;;;;;;;67.32;55.13;;;9.50;75.00;;;;;;5072203;28;20110;-58
2023/04/18 08:01:01;;;;;;;76.28;59.20;;;9.60;75.30;;;;;;5071274;28;20025;-58
2023/04/18 08:03:26;;;;;;;108.93;84.70;;;9.70;74.10;;;;;;5072312;28;20559;-58
2023/04/18 08:05:52;;;;;;;58.03;44.22;;;9.80;69.20;;;;;;5072318;28;20095;-58
2023/04/18 08:08:18;;;;;;;66.40;54.20;;;9.80;67.30;;;;;;5072047;28;20511;-57
2023/04/18 08:10:44;;;;;;;139.07;91.85;;;9.90;71.20;;;;;;5072207;28;20032;-57
2023/04/18 08:13:11;;;;;;;84.30;62.15;;;9.90;62.80;;;;;;5071922;28;20547;-58
2023/04/18 08:15:38;;;;;;;50.20;37.00;;;9.90;65.40;;;;;;5072172;28;20421;-57
2023/04/18 08:18:04;;;;;;;95.57;64.18;;;10.00;66.10;;;;;;5071988;28;20024;-58
2023/04/18 08:20:29;;;;;;;153.15;99.28;;;10.10;57.20;;;;;;5072565;28;20065;-58
2023/04/18 08:22:55;;;;;;;65.43;47.92;;;10.00;64.30;;;;;;5071434;28;20059;-57
2023/04/18 08:25:21;;;;;;;80.68;58.85;;;9.90;70.10;;;;;;5072616;28;20021;-58
2023/04/18 08:27:47;;;;;;;106.07;68.60;;;9.90;70.40;;;;;;5071777;28;20040;-57
2023/04/18 08:30:13;;;;;;;41.63;31.23;;;9.90;64.30;;;;;;5072197;28;20681;-56
2023/04/18 08:32:39;;;;;;;29.95;25.08;;;9.90;60.10;;;;;;5072372;28;20024;-58
2023/04/18 08:35:05;;;;;;;39.30;25.02;;;10.00;60.60;;;;;;5072910;28;20027;-58
2023/04/18 08:37:34;;;;;;;20.90;14.57;;;10.00;64.00;;;;;;5072163;28;20115;-58
2023/04/18 08:40:03;;;;;;;22.48;17.15;;;10.00;64.60;;;;;;5071921;28;20070;-58
2023/04/18 08:42:30;;;;;;;25.50;18.10;;;10.00;57.00;;;;;;5071921;28;20028;-57
2023/04/18 08:44:58;;;;;;;25.08;19.20;;;10.10;63.30;;;;;;5072497;28;20089;-56
2023/04/18 08:47:25;;;;;;;23.17;16.35;;;10.20;54.50;;;;;;5072433;28;20097;-53
2023/04/18 08:49:52;;;;;;;17.52;14.38;;;10.30;49.30;;;;;;5072772;28;20058;-58
2023/04/18 08:52:21;;;;;;;19.55;13.15;;;10.20;54.50;;;;;;5072520;28;20487;-57
2023/04/18 08:54:48;;;;;;;18.88;13.80;;;10.10;53.80;;;;;;5072743;28;20361;-56
2023/04/18 08:57:28;;;;;;;15.30;12.27;;;10.00;51.10;;;;;;5072361;28;20028;-58
2023/04/18 08:59:55;;;;;;;16.08;11.75;;;10.10;55.70;;;;;;5072172;28;20063;-56
2023/04/18 09:02:27;;;;;;;24.85;12.32;;;10.10;64.00;;;;;;5072322;28;20012;-58
2023/04/18 09:04:54;;;;;;;20.20;12.70;;;10.10;64.60;;;;;;5072412;28;20023;-58
2023/04/18 09:07:27;;;;;;;17.65;13.48;;;10.10;67.40;;;;;;5072153;28;20499;-56
2023/04/18 09:09:56;;;;;;;18.00;12.93;;;10.00;64.80;;;;;;5062755;28;20039;-57
2023/04/18 09:12:26;;;;;;;19.00;12.63;;;10.00;77.10;;;;;;5043825;28;20103;-58
2023/04/18 09:15:08;;;;;;;26.98;20.65;;;10.00;73.90;;;;;;5055562;28;20036;-57
2023/04/18 09:17:36;;;;;;;16.58;13.40;;;10.00;75.20;;;;;;5053241;28;20464;-57
2023/04/18 09:20:04;;;;;;;18.55;14.80;;;10.10;79.90;;;;;;5055978;28;20037;-58
2023/04/18 09:22:53;;;;;;;15.52;12.38;;;10.20;83.90;;;;;;5041193;28;20025;-58
2023/04/18 09:25:34;;;;;;;17.65;11.85;;;10.30;66.40;;;;;;5059794;28;20039;-57
2023/04/18 09:28:22;;;;;;;16.88;12.98;;;10.50;69.30;;;;;;5060116;28;20031;-58
2023/04/18 09:30:53;;;;;;;15.10;11.75;;;10.50;61.20;;;;;;5047721;28;20558;-56
2023/04/18 09:33:33;;;;;;;14.52;12.25;;;10.60;66.50;;;;;;5060097;28;20127;-58
2023/04/18 09:36:22;;;;;;;17.40;11.95;;;10.80;61.90;;;;;;5061044;28;20025;-57
2023/04/18 09:38:50;;;;;;;16.52;12.35;;;10.90;37.70;;;;;;5043417;28;20052;-58
2023/04/18 09:41:16;;;;;;;15.18;11.82;;;10.90;53.20;;;;;;5040890;28;20067;-58
2023/04/18 09:43:46;;;;;;;16.67;11.02;;;11.10;65.60;;;;;;5040728;28;20035;-57
2023/04/18 09:46:12;;;;;;;19.50;11.90;;;11.20;20.30;;;;;;5052234;28;20036;-58
2023/04/18 09:48:40;;;;;;;12.88;10.70;;;11.50;40.30;;;;;;5040947;28;20040;-58
2023/04/18 09:51:08;;;;;;;13.80;11.23;;;11.90;26.10;;;;;;5041285;28;20024;-58
2023/04/18 09:53:39;;;;;;;13.55;11.00;;;12.30;1.00;;;;;;5060619;28;20480;-58
2023/04/18 09:56:14;;;;;;;13.73;10.98;;;12.40;1.00;;;;;;5047859;28;20687;-56
2023/04/18 09:58:41;;;;;;;18.02;11.27;;;12.60;1.00;;;;;;5047631;28;20483;-58
2023/04/18 10:01:07;;;;;;;17.15;12.50;;;12.60;1.00;;;;;;5051386;28;20056;-56
2023/04/18 10:03:40;;;;;;;20.80;11.20;;;12.90;1.00;;;;;;5051310;28;20040;-58
2023/04/18 10:06:08;;;;;;;13.20;10.13;;;13.10;1.00;;;;;;5051443;28;20017;-58
2023/04/18 10:08:34;;;;;;;13.45;8.88;;;12.80;1.00;;;;;;5051240;28;20021;-58
2023/04/18 10:11:00;;;;;;;11.15;9.15;;;13.10;1.00;;;;;;5050725;28;20021;-59
2023/04/18 10:13:27;;;;;;;12.30;10.18;;;13.10;1.00;;;;;;5050897;28;20029;-59
2023/04/18 10:15:54;;;;;;;10.88;9.23;;;12.90;1.00;;;;;;5050263;28;20111;-59
2023/04/18 10:18:23;;;;;;;10.43;7.07;;;13.00;1.00;;;;;;5051004;28;20036;-58
2023/04/18 10:20:49;;;;;;;12.30;7.43;;;12.60;1.00;;;;;;5051342;28;20096;-58
2023/04/18 10:23:35;;;;;;;8.27;7.00;;;12.40;1.00;;;;;;5051216;28;20440;-58
2023/04/18 10:26:02;;;;;;;9.48;6.93;;;12.30;1.00;;;;;;5051378;28;20010;-59
2023/04/18 10:28:49;;;;;;;9.65;7.68;;;12.10;1.00;;;;;;5051136;28;20028;-57
2023/04/18 10:31:16;;;;;;;12.35;7.57;;;11.90;1.00;;;;;;5051133;28;20464;-58
2023/04/18 10:34:06;;;;;;;10.13;7.82;;;11.50;6.40;;;;;;5050966;28;20032;-58
2023/04/18 10:36:32;;;;;;;8.63;7.68;;;11.40;22.50;;;;;;5051803;28;20033;-57
2023/04/18 10:39:20;;;;;;;17.50;7.93;;;11.20;25.10;;;;;;5054881;28;20689;-58
2023/04/18 10:41:50;;;;;;;9.55;7.80;;;11.10;45.00;;;;;;5054860;28;20033;-57
2023/04/18 10:44:18;;;;;;;11.38;8.70;;;11.00;55.30;;;;;;5087351;28;20341;-58
2023/04/18 10:46:49;;;;;;;18.38;8.55;;;10.90;57.40;;;;;;5055249;28;20021;-58
2023/04/18 10:49:23;;;;;;;15.13;9.30;;;10.90;57.90;;;;;;5054663;28;20029;-58
2023/04/18 10:51:57;;;;;;;13.55;10.05;;;10.80;55.70;;;;;;5054916;28;20021;-54
2023/04/18 10:55:01;;;;;;;;;;;10.80;66.60;;;;;;5055365;28;20021;-58
2023/04/18 10:57:55;;;;;;;10.55;9.30;;;10.80;61.80;;;;;;5051793;28;19978;-58
2023/04/18 11:00:22;;;;;;;11.70;9.30;;;10.90;70.90;;;;;;5051294;28;20222;-58
2023/04/18 11:02:50;;;;;;;10.45;8.30;;;11.00;69.60;;;;;;5046073;28;20028;-56
2023/04/18 11:05:25;;;;;;;11.27;8.25;;;10.90;62.80;;;;;;5054470;28;20350;-58
2023/04/18 11:07:51;;;;;;;8.23;7.35;;;10.90;58.70;;;;;;5054327;28;20044;-58
2023/04/18 11:10:19;;;;;;;10.50;7.63;;;11.00;47.10;;;;;;5054290;28;20468;-58
2023/04/18 11:12:45;;;;;;;9.25;8.27;;;11.10;41.10;;;;;;5086979;28;20024;-58
2023/04/18 11:15:13;;;;;;;8.50;7.60;;;11.20;47.30;;;;;;5054168;28;20029;-58
2023/04/18 11:17:40;;;;;;;8.90;6.85;;;11.30;44.70;;;;;;5054320;28;20021;-57
2023/04/18 11:20:08;;;;;;;7.95;5.50;;;11.30;21.70;;;;;;5054371;28;20380;-58
2023/04/18 11:22:46;;;;;;;7.45;6.75;;;11.50;18.80;;;;;;5053596;28;20025;-58
2023/04/18 11:25:12;;;;;;;6.65;5.97;;;11.60;10.90;;;;;;5053955;28;20025;-58
2023/04/18 11:27:44;;;;;;;8.85;6.90;;;11.70;1.00;;;;;;5054313;28;20017;-58
2023/04/18 11:30:10;;;;;;;5.65;5.13;;;11.70;6.80;;;;;;5054136;28;20556;-58
2023/04/18 11:32:36;;;;;;;7.82;6.18;;;11.70;1.00;;;;;;5086352;28;20491;-58
2023/04/18 11:35:02;;;;;;;6.65;5.53;;;11.70;1.00;;;;;;5054202;28;20033;-58
2023/04/18 11:37:28;;;;;;;7.78;5.15;;;11.70;1.00;;;;;;5054027;28;20021;-58
2023/04/18 11:39:54;;;;;;;6.40;5.15;;;11.70;1.00;;;;;;5054073;28;20372;-58
2023/04/18 11:42:20;;;;;;;9.40;5.78;;;11.70;1.00;;;;;;5054032;28;20060;-58
2023/04/18 11:44:46;;;;;;;7.10;5.60;;;11.60;1.00;;;;;;5054119;28;20521;-58
2023/04/18 11:47:22;;;;;;;9.82;6.00;;;11.70;1.00;;;;;;5053764;28;20025;-58
2023/04/18 11:49:55;;;;;;;15.35;7.20;;;11.70;1.00;;;;;;5053509;28;20425;-57
2023/04/18 11:52:21;;;;;;;11.15;7.13;;;11.80;1.00;;;;;;5053894;28;20025;-58
2023/04/18 11:54:46;;;;;;;8.23;5.40;;;11.70;1.00;;;;;;5085917;28;20039;-58
2023/04/18 11:57:23;;;;;;;5.30;4.47;;;11.50;1.00;;;;;;5053626;28;20060;-58
2023/04/18 11:59:54;;;;;;;13.80;8.93;;;11.50;1.00;;;;;;5053488;28;20427;-58
2023/04/18 12:02:21;;;;;;;9.77;7.97;;;11.40;1.00;;;;;;5053702;28;20025;-58
2023/04/18 12:04:54;;;;;;;9.57;8.02;;;11.40;13.60;;;;;;5086028;28;20662;-58
2023/04/18 12:07:39;;;;;;;6.20;5.60;;;11.50;1.00;;;;;;5053388;28;20532;-58
2023/04/18 12:10:07;;;;;;;11.02;8.63;;;11.50;1.00;;;;;;5052671;28;20171;-58
2023/04/18 12:12:33;;;;;;;8.38;7.47;;;11.50;3.00;;;;;;5053299;28;20048;-58
2023/04/18 12:15:18;;;;;;;8.48;7.32;;;11.50;1.00;;;;;;5053400;28;20106;-58
2023/04/18 12:17:47;;;;;;;7.57;6.78;;;11.30;14.20;;;;;;5053329;28;20017;-58
2023/04/18 12:20:14;;;;;;;8.95;6.68;;;11.30;19.90;;;;;;5053129;28;20043;-58
2023/04/18 12:22:48;;;;;;;6.57;5.88;;;11.40;10.60;;;;;;5052939;28;20453;-58
2023/04/18 12:25:35;;;;;;;7.07;6.10;;;11.20;35.00;;;;;;5052571;28;20673;-58
2023/04/18 12:28:11;;;;;;;11.07;6.50;;;11.10;34.00;;;;;;5052404;28;20025;-58
2023/04/18 12:30:37;;;;;;;17.27;6.80;;;11.20;39.60;;;;;;5052333;28;20024;-58
2023/04/18 12:33:03;;;;;;;6.68;5.57;;;11.30;21.40;;;;;;5051900;28;20025;-58
2023/04/18 12:35:30;;;;;;;7.97;5.78;;;11.30;21.90;;;;;;5052484;28;20464;-58
2023/04/18 12:37:58;;;;;;;6.68;6.07;;;11.40;11.40;;;;;;5053022;28;20029;-58
2023/04/18 12:40:25;;;;;;;6.20;5.45;;;11.40;35.20;;;;;;5052630;28;20024;-58